Time;durP1;ratioP1;P1;durP2;ratioP2;P2;SDS_P1;SDS_P2;PMS_P1;PMS_P2;Temp;Humidity;BMP_temperature;BMP_pressure;BME280_temperature;BME280_humidity;BME280_pressure;Samples;Min_cycle;Max_cycle;Signal;HPM_P1;HPM_P2
2021/07/28 00:04:10;;;;;;;10.75;6.97;;;;;;;20.86;93.82;96057.53;6435088;46;20134;-73
2021/07/28 00:09:13;;;;;;;11.70;6.72;;;;;;;20.86;92.50;96049.13;6436141;46;20098;-73
2021/07/28 00:14:16;;;;;;;6.88;5.72;;;;;;;20.82;92.62;96063.50;6423112;46;20168;-73
2021/07/28 00:24:21;;;;;;;7.93;7.13;;;;;;;20.74;93.92;96066.16;6437271;46;20104;-73
2021/07/28 00:29:24;;;;;;;7.57;6.80;;;;;;;20.79;93.75;96072.97;6437048;46;20111;-73
2021/07/28 00:34:26;;;;;;;9.02;7.28;;;;;;;20.78;94.22;96077.09;6436204;46;20104;-73
2021/07/28 00:39:28;;;;;;;10.18;7.13;;;;;;;20.84;94.17;96094.59;6435078;46;20091;-73
2021/07/28 00:49:23;;;;;;;9.82;7.05;;;;;;;20.95;94.06;96094.41;5344878;55;21084;-74
2021/07/28 00:54:26;;;;;;;7.43;6.30;;;;;;;20.77;92.65;96089.59;5318557;55;20114;-74
2021/07/28 00:59:29;;;;;;;5.90;5.15;;;;;;;20.64;91.52;96087.53;5301130;55;20115;-74
2021/07/28 01:04:32;;;;;;;6.63;4.03;;;;;;;20.47;89.14;96072.22;5300822;55;20127;-75
2021/07/28 01:09:34;;;;;;;4.10;3.67;;;;;;;20.26;90.29;96057.25;5301844;56;20119;-74
2021/07/28 01:14:36;;;;;;;5.13;3.83;;;;;;;20.17;91.64;96052.78;5324082;55;20123;-76
2021/07/28 01:19:48;;;;;;;6.93;3.35;;;;;;;20.05;91.75;96051.41;5307216;56;20115;-74
2021/07/28 01:24:50;;;;;;;5.28;4.03;;;;;;;19.89;92.24;96039.13;5302265;55;20597;-74
2021/07/28 01:29:53;;;;;;;4.70;3.47;;;;;;;19.92;93.16;96043.66;5300694;56;20120;-74
2021/07/28 01:34:55;;;;;;;4.72;3.85;;;;;;;19.80;94.24;96021.94;5300217;55;20120;-75
2021/07/28 01:39:57;;;;;;;4.18;3.78;;;;;;;19.76;93.96;96011.03;5300468;56;20119;-75
2021/07/28 01:45:00;;;;;;;6.10;3.90;;;;;;;20.06;92.86;96018.50;5300000;55;20115;-75
2021/07/28 01:50:03;;;;;;;8.10;4.38;;;;;;;20.13;91.92;96017.91;5300369;55;20120;-75
2021/07/28 01:55:07;;;;;;;5.97;4.60;;;;;;;20.10;92.86;96024.56;5300102;55;20649;-75
2021/07/28 02:00:27;;;;;;;5.82;4.18;;;;;;;19.98;93.26;96038.75;5286937;56;20218;-75
2021/07/28 02:05:38;;;;;;;7.97;5.03;;;;;;;19.92;93.51;96043.66;5285806;56;20209;-74
2021/07/28 02:10:42;;;;;;;5.95;4.60;;;;;;;19.89;93.96;96041.94;5286428;56;20093;-75
2021/07/28 02:15:46;;;;;;;6.80;4.00;;;;;;;19.83;93.53;96027.22;5285554;55;20124;-72
2021/07/28 02:20:49;;;;;;;7.18;4.70;;;;;;;19.85;93.82;96023.91;5285682;56;20713;-75
2021/07/28 02:25:51;;;;;;;4.50;4.00;;;;;;;19.90;93.58;96015.41;5285243;56;20123;-75
2021/07/28 02:30:54;;;;;;;12.25;4.43;;;;;;;19.89;93.43;96025.13;5285463;56;20119;-75
2021/07/28 02:35:56;;;;;;;7.38;4.28;;;;;;;19.85;93.05;96016.25;5285166;56;20634;-75
2021/07/28 02:40:59;;;;;;;4.40;3.90;;;;;;;19.77;93.71;96017.38;5285362;56;20128;-74
2021/07/28 02:46:01;;;;;;;6.30;3.90;;;;;;;19.88;93.40;96015.16;5284915;56;20128;-76
2021/07/28 02:51:04;;;;;;;4.28;3.88;;;;;;;19.86;92.89;96014.19;5285476;56;20139;-76
2021/07/28 02:56:06;;;;;;;4.68;3.78;;;;;;;19.71;92.94;96020.28;5285823;56;20129;-75
2021/07/28 03:01:08;;;;;;;6.40;3.95;;;;;;;19.67;93.74;96024.66;5275847;56;20115;-75
2021/07/28 03:06:11;;;;;;;7.63;4.70;;;;;;;19.66;93.86;96020.31;5284808;56;20128;-76
2021/07/28 03:11:13;;;;;;;6.10;4.05;;;;;;;19.52;93.82;96047.50;5284481;56;20124;-76
2021/07/28 03:16:16;;;;;;;4.50;3.90;;;;;;;19.64;93.70;96042.53;5284867;56;20115;-75
2021/07/28 03:21:18;;;;;;;6.03;3.80;;;;;;;19.53;93.46;96026.63;5285143;56;20215;-74
2021/07/28 03:26:21;;;;;;;4.40;4.00;;;;;;;19.62;93.64;96037.47;5284500;56;20123;-74
2021/07/28 03:31:23;;;;;;;8.23;3.95;;;;;;;19.56;93.97;96038.81;5284521;56;20225;-75
2021/07/28 03:36:26;;;;;;;4.05;3.65;;;;;;;19.56;93.52;96033.22;5274915;55;20110;-73
2021/07/28 03:41:28;;;;;;;5.00;3.97;;;;;;;19.68;93.11;96038.13;5284793;56;20673;-74
2021/07/28 03:46:30;;;;;;;6.22;3.55;;;;;;;19.57;93.99;96051.53;5283716;56;20610;-75
2021/07/28 03:51:33;;;;;;;8.55;4.60;;;;;;;19.65;94.23;96046.84;5284658;56;20128;-75
2021/07/28 03:56:35;;;;;;;5.35;4.07;;;;;;;19.64;93.56;96048.91;5284016;56;20833;-75
2021/07/28 04:01:38;;;;;;;5.95;3.95;;;;;;;19.46;94.11;96035.63;5284338;56;20124;-75
2021/07/28 04:06:40;;;;;;;11.02;3.80;;;;;;;19.63;93.38;96024.94;5284428;56;20137;-77
2021/07/28 04:11:43;;;;;;;6.25;3.67;;;;;;;19.58;92.68;96025.81;5284091;56;20614;-75
2021/07/28 04:16:45;;;;;;;3.05;2.75;;;;;;;19.55;92.86;96024.03;5283800;56;20124;-75
2021/07/28 04:21:47;;;;;;;3.13;2.63;;;;;;;19.54;92.67;96018.97;5283705;56;20120;-74
2021/07/28 04:26:50;;;;;;;8.90;3.45;;;;;;;19.52;92.66;96018.72;5283959;56;20152;-74
2021/07/28 04:31:52;;;;;;;5.38;3.60;;;;;;;19.33;93.73;96013.09;5284008;56;20138;-76
2021/07/28 04:36:54;;;;;;;4.28;3.13;;;;;;;19.31;94.10;96033.22;5283421;56;20115;-75
2021/07/28 04:41:56;;;;;;;7.25;3.83;;;;;;;19.46;93.69;96026.44;5283764;56;20156;-74
2021/07/28 04:46:59;;;;;;;3.60;3.30;;;;;;;19.55;93.18;96040.88;5282956;56;20119;-76
2021/07/28 04:52:01;;;;;;;3.45;3.22;;;;;;;19.42;93.56;96031.59;5283388;56;20111;-75
2021/07/28 04:57:05;;;;;;;3.85;3.45;;;;;;;19.37;92.83;96044.41;5283043;56;20138;-76
2021/07/28 05:02:07;;;;;;;3.65;3.03;;;;;;;19.57;92.17;96035.47;5283617;56;20119;-75
2021/07/28 05:07:10;;;;;;;3.75;3.40;;;;;;;19.85;92.29;96038.69;5282918;56;20225;-75
2021/07/28 05:12:12;;;;;;;3.90;3.03;;;;;;;19.86;92.52;96033.81;5283684;56;20107;-75
2021/07/28 05:17:14;;;;;;;3.60;3.30;;;;;;;20.01;91.23;96025.72;5282990;56;20138;-75
2021/07/28 05:22:17;;;;;;;3.63;3.33;;;;;;;20.17;90.19;96037.97;5282893;56;20124;-76
2021/07/28 05:27:19;;;;;;;9.88;2.92;;;;;;;20.18;90.37;96033.88;5283028;56;20310;-76
2021/07/28 05:32:23;;;;;;;3.47;3.17;;;;;;;20.31;89.43;96025.56;5283587;56;20129;-76
2021/07/28 05:37:28;;;;;;;3.42;3.13;;;;;;;20.45;90.14;96016.63;5285896;55;20128;-75
2021/07/28 05:42:31;;;;;;;3.92;3.53;;;;;;;20.84;87.60;96015.97;5286316;56;20119;-76
2021/07/28 05:47:33;;;;;;;4.38;3.22;;;;;;;21.04;86.83;96018.16;5286117;55;20120;-76
2021/07/28 05:52:36;;;;;;;3.65;3.35;;;;;;;21.04;87.59;96015.34;5286299;56;20186;-74
2021/07/28 05:57:38;;;;;;;3.60;3.30;;;;;;;21.29;86.53;96029.97;5286825;56;20133;-76
2021/07/28 06:02:41;;;;;;;5.05;3.30;;;;;;;21.39;85.93;96031.78;5285654;56;20115;-71
2021/07/28 06:07:43;;;;;;;3.95;3.42;;;;;;;21.28;86.78;96031.25;5285625;56;20606;-77
2021/07/28 06:12:46;;;;;;;5.43;3.22;;;;;;;21.42;86.41;96018.69;5286598;56;20150;-77
2021/07/28 06:17:48;;;;;;;5.28;3.45;;;;;;;21.56;85.92;96022.25;5288208;56;20115;-77
2021/07/28 06:22:50;;;;;;;4.68;3.50;;;;;;;21.39;84.40;96011.38;5308618;56;20111;-77
2021/07/28 06:27:53;;;;;;;6.68;3.03;;;;;;;21.54;83.04;96025.63;5303782;56;20137;-77
2021/07/28 06:32:55;;;;;;;4.88;2.78;;;;;;;22.04;80.91;96013.31;5286001;56;20574;-77
2021/07/28 06:37:58;;;;;;;3.20;2.90;;;;;;;22.40;79.11;96010.66;5285844;56;20642;-77
2021/07/28 06:43:00;;;;;;;5.32;3.22;;;;;;;22.29;79.53;96022.97;5286261;56;20115;-77
2021/07/28 06:48:03;;;;;;;9.10;3.05;;;;;;;22.46;78.82;96026.13;5285807;56;20651;-77
2021/07/28 06:53:05;;;;;;;5.43;3.10;;;;;;;22.65;79.56;96037.22;5276709;56;20196;-77
2021/07/28 06:58:07;;;;;;;4.53;2.80;;;;;;;22.74;77.51;96034.69;5285461;56;20114;-77
2021/07/28 07:03:10;;;;;;;5.50;2.70;;;;;;;;;;5281627;55;20593;-77
2021/07/28 07:08:13;;;;;;;4.13;3.13;;;;;;;22.57;79.79;96034.28;5284547;56;20182;-77
2021/07/28 07:13:15;;;;;;;6.25;3.83;;;;;;;22.50;77.44;96029.34;5275971;56;20655;-77
2021/07/28 07:18:17;;;;;;;5.88;4.03;;;;;;;22.31;77.11;96022.41;5284821;55;20115;-77
2021/07/28 07:23:20;;;;;;;6.10;3.67;;;;;;;22.67;77.22;96026.91;5285232;56;20975;-77
2021/07/28 07:28:22;;;;;;;4.97;3.17;;;;;;;23.51;77.82;96022.66;5285204;56;20164;-77
2021/07/28 07:33:37;;;;;;;5.95;4.45;;;;;;;23.14;75.26;96029.53;5286505;56;20124;-76
2021/07/28 07:38:41;;;;;;;6.25;4.55;;;;;;;23.03;74.91;96029.84;5285839;56;20123;-76
2021/07/28 07:43:43;;;;;;;6.65;4.28;;;;;;;23.39;73.29;96018.63;5286553;56;20129;-77
2021/07/28 07:48:46;;;;;;;12.23;4.65;;;;;;;23.68;71.52;96013.72;5286008;56;20609;-77
2021/07/28 07:53:48;;;;;;;5.45;4.38;;;;;;;23.38;75.49;96026.31;5288104;56;20643;-77
2021/07/28 07:58:51;;;;;;;5.80;4.60;;;;;;;23.49;74.35;96016.81;5286287;56;20115;-78
2021/07/28 08:03:53;;;;;;;5.80;4.97;;;;;;;23.27;74.71;96020.97;5286717;55;20111;-78
2021/07/28 08:08:55;;;;;;;4.97;4.43;;;;;;;23.23;75.11;96039.53;5285306;56;20146;-77
2021/07/28 08:13:58;;;;;;;6.88;4.65;;;;;;;23.02;75.91;96050.13;5283820;56;20194;-77
2021/07/28 08:19:00;;;;;;;9.27;5.63;;;;;;;22.04;78.57;96044.25;5283122;56;20106;-78
2021/07/28 08:24:04;;;;;;;6.82;5.47;;;;;;;21.77;79.62;96031.53;5279569;56;20111;-77
2021/07/28 08:29:06;;;;;;;10.68;5.45;;;;;;;21.94;80.78;96035.53;5282363;56;20123;-77
2021/07/28 08:34:08;;;;;;;7.07;5.30;;;;;;;21.81;79.97;96037.56;5283159;56;20115;-77
2021/07/28 08:39:11;;;;;;;10.75;5.78;;;;;;;21.80;79.95;96027.63;5281573;56;20280;-77
2021/07/28 08:44:18;;;;;;;6.45;5.68;;;;;;;21.64;80.09;96037.94;5282766;56;20678;-77
2021/07/28 08:49:22;;;;;;;10.57;5.65;;;;;;;21.55;81.02;96040.44;5278520;56;20111;-77
2021/07/28 08:54:24;;;;;;;7.60;5.78;;;;;;;21.17;83.10;96057.50;5282476;56;20114;-77
2021/07/28 08:59:29;;;;;;;8.75;5.80;;;;;;;21.20;84.36;96056.44;5282836;56;20120;-76
2021/07/28 09:04:31;;;;;;;12.25;5.85;;;;;;;21.08;84.70;96057.16;5281849;56;20665;-78
2021/07/28 09:09:47;;;;;;;8.80;5.90;;;;;;;20.99;87.08;96080.81;5276349;56;20230;-77
2021/07/28 09:14:54;;;;;;;11.07;5.63;;;;;;;20.98;87.65;96096.16;5284390;55;20106;-76
2021/07/28 09:19:58;;;;;;;12.07;7.30;;;;;;;20.57;91.15;96082.53;5281370;55;20124;-75
2021/07/28 09:25:24;;;;;;;10.32;6.97;;;;;;;20.41;90.70;96083.53;5280239;56;20115;-76
2021/07/28 09:30:26;;;;;;;9.68;7.45;;;;;;;20.28;93.53;96077.88;5278573;56;20142;-75
2021/07/28 09:35:43;;;;;;;16.88;8.18;;;;;;;20.16;94.40;96095.38;5274562;56;20102;-77
2021/07/28 09:40:46;;;;;;;13.25;7.93;;;;;;;20.25;94.89;96111.84;5284789;56;20115;-77
2021/07/28 09:45:48;;;;;;;9.48;6.93;;;;;;;20.09;94.96;96110.75;5285574;55;20159;-76
2021/07/28 09:50:56;;;;;;;11.63;8.35;;;;;;;19.86;95.69;96115.91;5285506;56;20322;-75
2021/07/28 09:55:58;;;;;;;11.52;8.10;;;;;;;19.67;95.16;96109.53;5275863;56;20118;-75
2021/07/28 10:01:00;;;;;;;9.48;7.32;;;;;;;19.37;93.77;96116.47;5285406;56;20112;-74
2021/07/28 10:06:03;;;;;;;6.75;4.40;;;;;;;18.86;89.69;96140.63;5285968;56;20571;-76
2021/07/28 10:11:07;;;;;;;5.93;3.72;;;;;;;18.88;89.20;96166.81;5274465;56;20111;-76
2021/07/28 10:16:10;;;;;;;4.68;4.07;;;;;;;18.99;90.99;96177.16;5284790;56;20642;-76
2021/07/28 10:21:13;;;;;;;7.25;5.63;;;;;;;19.35;93.33;96181.47;5282583;56;20098;-77
2021/07/28 10:26:17;;;;;;;6.43;5.07;;;;;;;19.40;92.26;96175.06;5284576;56;20133;-77
2021/07/28 10:31:21;;;;;;;6.20;4.47;;;;;;;19.58;90.73;96173.59;5280018;56;20632;-76
2021/07/28 10:36:52;;;;;;;5.10;3.65;;;;;;;19.62;87.69;96185.28;5274941;55;20106;-76
2021/07/28 10:41:55;;;;;;;6.20;4.40;;;;;;;20.08;88.41;96175.81;5280275;56;20093;-75
2021/07/28 10:47:04;;;;;;;6.57;4.85;;;;;;;19.96;89.44;96175.97;5285344;56;20115;-76
2021/07/28 10:52:13;;;;;;;6.40;4.53;;;;;;;20.47;87.17;96170.47;5285071;56;20102;-76
2021/07/28 10:57:39;;;;;;;5.50;4.20;;;;;;;20.60;83.54;96159.31;5275835;56;20124;-76
2021/07/28 11:02:56;;;;;;;5.13;4.63;;;;;;;21.21;84.81;96161.19;5275743;56;20111;-76
2021/07/28 11:08:05;;;;;;;6.53;3.85;;;;;;;21.33;83.54;96170.91;5284190;56;20129;-76
2021/07/28 11:13:09;;;;;;;5.80;4.63;;;;;;;20.83;85.87;96170.97;5273125;55;20128;-75
2021/07/28 11:18:11;;;;;;;6.72;5.05;;;;;;;20.63;86.08;96175.09;5281416;55;20119;-76
2021/07/28 11:23:27;;;;;;;6.15;4.88;;;;;;;21.20;86.10;96163.22;5284359;55;20133;-75
2021/07/28 11:28:29;;;;;;;4.00;3.50;;;;;;;21.83;82.56;96170.00;5289715;56;20128;-76
2021/07/28 11:33:32;;;;;;;4.40;3.17;;;;;;;22.38;77.02;96157.63;5311036;56;20211;-75
2021/07/28 11:38:39;;;;;;;3.35;3.05;;;;;;;22.75;78.22;96171.41;5298081;55;20111;-77
2021/07/28 11:43:41;;;;;;;2.78;2.58;;;;;;;23.08;76.96;96177.56;5284798;56;20150;-75
2021/07/28 11:48:46;;;;;;;4.70;2.85;;;;;;;23.00;73.99;96196.47;5283991;56;20699;-77
2021/07/28 11:53:48;;;;;;;7.07;3.22;;;;;;;23.07;74.20;96187.34;5284235;56;20124;-76
2021/07/28 11:58:51;;;;;;;3.85;2.70;;;;;;;22.34;76.74;96184.63;5282960;55;20654;-75
2021/07/28 12:04:10;;;;;;;4.93;3.22;;;;;;;22.41;77.45;96179.06;5282009;56;20133;-75
2021/07/28 12:09:16;;;;;;;;;;;;;;;22.58;76.59;96199.19;5276794;56;20119;-76
2021/07/28 12:14:40;;;;;;;3.30;3.00;;;;;;;22.70;75.73;96192.03;5274398;56;19969;-76
2021/07/28 12:20:14;;;;;;;3.67;3.10;;;;;;;22.26;76.34;96190.13;5283081;56;20302;-74
2021/07/28 12:25:24;;;;;;;5.32;3.35;;;;;;;22.06;77.88;96202.84;5276417;55;20221;-75
2021/07/28 12:30:38;;;;;;;4.65;3.05;;;;;;;21.67;79.29;96196.38;5279924;55;20137;-75
2021/07/28 12:36:01;;;;;;;3.20;2.90;;;;;;;21.91;77.60;96197.00;5281889;55;20111;-75
2021/07/28 12:41:05;;;;;;;4.07;2.80;;;;;;;22.02;75.53;96184.75;5279090;56;20167;-75
2021/07/28 12:46:09;;;;;;;3.60;2.85;;;;;;;22.75;76.63;96179.13;5263734;56;20141;-75
2021/07/28 12:51:14;;;;;;;3.28;2.75;;;;;;;23.17;72.65;96183.50;5281221;56;20110;-75
2021/07/28 12:56:16;;;;;;;3.38;3.08;;;;;;;22.91;72.26;96177.22;5279784;56;20120;-76
2021/07/28 13:01:19;;;;;;;3.88;2.88;;;;;;;22.17;73.13;96189.81;5282763;56;20111;-74
2021/07/28 13:06:23;;;;;;;3.47;3.17;;;;;;;22.07;76.83;96200.78;5279733;56;20115;-76
2021/07/28 13:11:26;;;;;;;3.55;3.25;;;;;;;21.63;79.59;96212.81;5282692;56;20120;-74
2021/07/28 13:16:28;;;;;;;3.30;3.00;;;;;;;21.92;78.19;96218.19;5282533;56;20213;-76
2021/07/28 13:21:31;;;;;;;4.05;3.35;;;;;;;21.58;76.80;96220.06;5282364;56;20115;-76
2021/07/28 13:26:33;;;;;;;4.72;3.20;;;;;;;21.48;76.58;96212.59;5282525;56;20562;-76
2021/07/28 13:31:37;;;;;;;3.20;2.85;;;;;;;21.52;78.13;96213.03;5282350;56;20120;-76
2021/07/28 13:36:40;;;;;;;3.55;3.08;;;;;;;21.86;78.91;96203.47;5281891;56;20145;-76
2021/07/28 13:41:42;;;;;;;3.40;3.10;;;;;;;22.16;77.27;96214.41;5282262;56;20124;-76
2021/07/28 13:46:44;;;;;;;3.35;3.05;;;;;;;22.34;77.57;96207.91;5282464;56;20243;-76
2021/07/28 13:51:47;;;;;;;3.50;3.13;;;;;;;22.36;78.24;96213.75;5278787;56;20124;-75
2021/07/28 13:57:12;;;;;;;3.58;3.28;;;;;;;21.87;75.78;96202.16;5284909;56;20579;-77
2021/07/28 14:02:16;;;;;;;3.55;3.25;;;;;;;21.88;76.07;96200.88;5285419;56;20115;-75
2021/07/28 14:07:18;;;;;;;3.95;3.38;;;;;;;21.64;77.56;96212.31;5285309;55;20224;-75
2021/07/28 14:12:22;;;;;;;5.35;3.22;;;;;;;21.60;78.69;96194.97;5285362;56;20601;-75
2021/07/28 14:17:26;;;;;;;3.83;3.10;;;;;;;21.90;75.62;96208.78;5284854;55;20200;-75
2021/07/28 14:22:31;;;;;;;3.50;3.20;;;;;;;21.98;78.25;96196.31;5285097;56;20189;-76
2021/07/28 14:27:34;;;;;;;3.80;3.10;;;;;;;22.41;75.55;96204.41;5275719;55;20098;-76
2021/07/28 14:32:37;;;;;;;4.13;3.20;;;;;;;22.01;75.24;96202.94;5285344;56;20128;-76
2021/07/28 14:37:40;;;;;;;4.43;3.42;;;;;;;22.56;76.80;96204.59;5284533;56;20115;-76
2021/07/28 14:42:42;;;;;;;3.30;3.00;;;;;;;22.25;77.93;96193.50;5284738;56;20119;-76
2021/07/28 14:47:45;;;;;;;3.58;3.05;;;;;;;22.63;77.87;96195.53;5275288;56;20106;-77
2021/07/28 14:52:48;;;;;;;3.42;3.13;;;;;;;22.45;76.19;96201.25;5283848;55;20111;-77
2021/07/28 14:57:50;;;;;;;3.35;3.05;;;;;;;22.51;77.33;96188.56;5284461;55;20646;-76
2021/07/28 15:02:53;;;;;;;3.90;3.03;;;;;;;22.02;78.50;96188.34;5284490;56;20115;-75
2021/07/28 15:07:55;;;;;;;3.67;3.00;;;;;;;22.11;79.68;96184.31;5284114;55;20111;-76
2021/07/28 15:12:58;;;;;;;5.85;3.10;;;;;;;22.37;78.07;96177.88;5283452;55;20159;-75
2021/07/28 15:18:00;;;;;;;3.92;3.58;;;;;;;22.48;78.95;96186.84;5291607;55;20137;-76
2021/07/28 15:23:02;;;;;;;4.88;3.17;;;;;;;22.34;79.01;96193.81;5284285;56;20142;-75
2021/07/28 15:28:05;;;;;;;3.35;3.05;;;;;;;22.58;79.14;96176.66;5283802;56;20106;-76
2021/07/28 15:33:07;;;;;;;4.07;3.13;;;;;;;22.56;78.21;96176.44;5281503;55;20137;-75
2021/07/28 15:38:10;;;;;;;3.75;3.40;;;;;;;23.29;75.38;96184.72;5278531;55;20115;-76
2021/07/28 15:43:12;;;;;;;3.47;3.20;;;;;;;23.28;74.73;96179.63;5281735;55;20115;-75
2021/07/28 15:48:14;;;;;;;3.33;3.03;;;;;;;23.17;75.15;96194.00;5279350;55;20115;-75
2021/07/28 15:53:17;;;;;;;3.47;2.80;;;;;;;22.90;74.48;96178.50;5281072;56;20120;-75
2021/07/28 15:58:19;;;;;;;3.50;3.20;;;;;;;22.88;73.94;96183.94;5280949;55;20841;-76
2021/07/28 16:03:21;;;;;;;3.25;2.80;;;;;;;22.91;76.49;96168.78;5274638;56;20668;-77
2021/07/28 16:08:24;;;;;;;2.85;2.65;;;;;;;22.66;75.77;96169.06;5280003;55;20129;-77
2021/07/28 16:13:26;;;;;;;3.22;2.50;;;;;;;22.66;75.35;96169.06;5275175;55;20276;-76
2021/07/28 16:18:41;;;;;;;2.55;2.35;;;;;;;23.16;74.72;96167.13;5282667;56;20124;-78
2021/07/28 16:23:44;;;;;;;2.58;2.28;;;;;;;22.51;75.68;96171.69;5283380;55;20128;-77
2021/07/28 16:28:47;;;;;;;2.50;2.30;;;;;;;22.62;76.52;96165.81;5282561;56;20106;-77
2021/07/28 16:33:49;;;;;;;2.20;2.10;;;;;;;22.89;74.51;96148.84;5283532;55;20154;-76
2021/07/28 16:38:52;;;;;;;2.47;2.28;;;;;;;22.93;76.18;96155.66;5279094;56;20146;-75
2021/07/28 16:43:54;;;;;;;2.33;2.13;;;;;;;22.59;75.57;96163.31;5290173;55;20124;-76
2021/07/28 16:48:57;;;;;;;2.17;2.08;;;;;;;22.73;74.81;96157.13;5308790;56;20199;-78
2021/07/28 16:53:59;;;;;;;3.03;2.20;;;;;;;22.77;74.18;96165.97;5283557;56;20681;-77
2021/07/28 16:59:03;;;;;;;2.10;2.00;;;;;;;22.74;74.81;96160.69;5275444;56;20137;-77
2021/07/28 17:04:05;;;;;;;6.32;2.10;;;;;;;22.73;74.75;96164.81;5280559;56;20128;-76
2021/07/28 17:09:07;;;;;;;2.60;1.88;;;;;;;22.78;74.69;96149.84;5281416;56;20120;-77
2021/07/28 17:14:10;;;;;;;1.90;1.80;;;;;;;22.52;75.79;96156.31;5281913;56;20111;-77
2021/07/28 17:19:13;;;;;;;2.22;2.03;;;;;;;22.35;75.56;96161.53;5281466;56;20128;-75
2021/07/28 17:24:15;;;;;;;2.20;2.10;;;;;;;22.51;76.30;96166.03;5281574;56;20133;-74
2021/07/28 17:29:18;;;;;;;2.55;2.15;;;;;;;22.45;77.33;96164.66;5280863;55;20205;-75
2021/07/28 17:34:21;;;;;;;2.05;1.95;;;;;;;22.56;74.92;96159.53;5285038;56;20120;-77
2021/07/28 17:39:25;;;;;;;2.13;1.98;;;;;;;22.89;71.89;96160.09;5279379;55;20129;-75
2021/07/28 17:44:27;;;;;;;3.95;1.67;;;;;;;22.87;72.76;96142.97;5280126;55;20125;-76
2021/07/28 17:49:29;;;;;;;3.47;2.08;;;;;;;22.31;73.92;96152.66;5284899;55;20119;-75
2021/07/28 17:54:32;;;;;;;1.90;1.80;;;;;;;22.36;75.43;96151.03;5294236;55;20124;-75
2021/07/28 17:59:35;;;;;;;3.85;2.03;;;;;;;22.30;76.83;96145.50;5283986;55;20141;-76
2021/07/28 18:04:41;;;;;;;2.05;1.90;;;;;;;21.97;77.40;96154.66;5281528;55;20164;-75
2021/07/28 18:09:44;;;;;;;2.30;2.10;;;;;;;21.65;78.90;96148.34;5293314;55;20677;-72
2021/07/28 18:14:47;;;;;;;2.35;1.85;;;;;;;21.73;79.16;96149.25;5291642;55;20119;-75
2021/07/28 18:19:50;;;;;;;2.97;1.95;;;;;;;21.65;79.90;96148.34;5282814;55;20224;-75
2021/07/28 18:24:53;;;;;;;4.60;2.00;;;;;;;21.41;80.49;96150.09;5289120;55;20124;-75
2021/07/28 18:29:55;;;;;;;1.90;1.80;;;;;;;21.24;79.99;96149.63;5284696;56;20128;-75
2021/07/28 18:34:57;;;;;;;4.63;1.80;;;;;;;20.95;80.45;96155.44;5276208;56;20115;-76
2021/07/28 18:40:01;;;;;;;3.13;1.77;;;;;;;20.60;81.24;96156.50;5285272;56;20106;-75
2021/07/28 18:45:04;;;;;;;1.70;1.60;;;;;;;20.43;82.32;96159.56;5284958;56;20646;-75
2021/07/28 18:50:07;;;;;;;2.03;1.88;;;;;;;20.20;84.19;96163.16;5284967;56;20202;-75
2021/07/28 18:55:10;;;;;;;2.85;1.70;;;;;;;20.01;85.02;96171.56;5284634;56;20146;-75
2021/07/28 19:00:13;;;;;;;5.03;2.08;;;;;;;20.00;85.47;96175.66;5284769;55;20125;-75
2021/07/28 19:05:15;;;;;;;2.92;1.85;;;;;;;19.80;85.85;96173.34;5284487;55;20666;-74
2021/07/28 19:10:18;;;;;;;7.28;2.20;;;;;;;19.75;86.14;96177.72;5284420;56;20601;-76
2021/07/28 19:15:22;;;;;;;3.00;1.65;;;;;;;19.63;86.79;96184.00;5283653;56;20753;-75
2021/07/28 19:20:26;;;;;;;4.05;1.95;;;;;;;19.40;87.40;96183.47;5284540;55;20116;-76
2021/07/28 19:42:41;;;;;;;7.10;2.20;;;;;;;18.85;88.48;96197.88;1554823;52;20139;-72
2021/07/28 19:47:44;;;;;;;5.38;1.70;;;;;;;18.66;89.21;96205.41;5239308;56;20139;-73
2021/07/28 19:52:47;;;;;;;1.58;1.48;;;;;;;18.49;89.92;96200.69;5240717;56;20134;-73
2021/07/28 20:09:34;;;;;;;2.50;1.70;;;;;;;18.35;90.66;96189.78;1572669;52;20140;-73
2021/07/28 20:32:07;;;;;;;1.75;1.65;;;;;;;18.19;91.01;96199.78;1566965;52;20144;-74
2021/07/28 20:55:16;;;;;;;6.57;1.52;;;;;;;17.98;91.29;96201.38;5135002;57;20131;-74
2021/07/28 21:00:18;;;;;;;3.15;1.52;;;;;;;17.93;91.24;96193.81;5147470;57;20130;-73
2021/07/28 21:05:21;;;;;;;2.10;1.60;;;;;;;17.91;90.89;96196.34;5147772;57;20945;-73
2021/07/28 21:10:23;;;;;;;1.50;1.40;;;;;;;17.88;90.86;96186.19;5155656;57;20144;-74
2021/07/28 21:15:28;;;;;;;4.78;1.58;;;;;;;17.70;90.80;96184.72;5140934;57;20144;-74
2021/07/28 21:20:31;;;;;;;1.50;1.40;;;;;;;17.79;91.50;96190.03;5141482;57;20143;-74
2021/07/28 21:25:33;;;;;;;2.20;1.80;;;;;;;17.71;91.25;96197.41;5140805;57;20188;-74
2021/07/28 21:30:36;;;;;;;4.45;1.70;;;;;;;17.55;92.03;96200.28;5132472;57;20785;-73
2021/07/28 21:35:39;;;;;;;4.30;1.55;;;;;;;17.51;91.75;96189.34;5141011;57;20650;-72
2021/07/28 21:40:41;;;;;;;3.95;1.80;;;;;;;17.47;91.53;96193.66;5140825;57;20130;-74
2021/07/28 21:45:55;;;;;;;1.30;1.30;;;;;;;17.39;91.48;96195.44;5140565;57;20144;-74
2021/07/28 21:50:59;;;;;;;2.97;1.52;;;;;;;17.25;91.65;96190.88;5132510;57;20130;-74
2021/07/28 21:56:10;;;;;;;1.58;1.35;;;;;;;17.23;92.13;96205.38;5140556;57;20753;-74
2021/07/28 22:01:15;;;;;;;3.35;1.40;;;;;;;17.22;92.24;96189.88;5134211;57;20723;-74
2021/07/28 22:18:10;;;;;;;4.75;1.63;;;;;;;17.34;92.06;96207.38;5158549;57;20679;-75
2021/07/28 22:23:12;;;;;;;3.20;1.67;;;;;;;17.33;92.19;96206.63;5161079;57;20116;-74
2021/07/28 22:28:15;;;;;;;4.82;1.95;;;;;;;17.22;92.14;96206.63;5159921;57;20125;-74
2021/07/28 22:33:17;;;;;;;1.98;1.50;;;;;;;17.24;91.95;96204.09;5160218;57;20701;-74
2021/07/28 22:38:20;;;;;;;4.72;1.35;;;;;;;17.17;92.65;96212.97;5151199;57;20129;-74
2021/07/28 22:43:23;;;;;;;4.40;1.88;;;;;;;17.06;92.37;96202.56;5164772;57;20124;-73
2021/07/28 22:53:47;;;;;;;2.83;1.50;;;;;;;17.04;92.11;96204.34;5180680;57;20270;-73
2021/07/28 23:09:17;;;;;;;4.82;1.67;;;;;;;16.85;92.62;96206.88;5181091;57;20683;-74
2021/07/28 23:14:19;;;;;;;3.63;1.50;;;;;;;16.85;92.37;96200.53;5180171;57;20142;-73
2021/07/28 23:19:22;;;;;;;2.08;1.27;;;;;;;16.70;92.66;96200.78;5180201;57;20652;-72
2021/07/28 23:24:24;;;;;;;2.22;1.58;;;;;;;16.72;92.91;96211.44;5180249;57;20116;-73
2021/07/28 23:29:26;;;;;;;2.38;1.60;;;;;;;16.68;92.97;96203.31;5179799;57;20115;-73
2021/07/28 23:34:29;;;;;;;6.22;1.98;;;;;;;16.59;94.73;96228.66;5179914;57;20128;-73
2021/07/28 23:39:31;;;;;;;2.33;1.88;;;;;;;16.86;95.50;96224.38;5179817;57;20128;-73
2021/07/28 23:44:33;;;;;;;2.00;1.90;;;;;;;17.01;93.88;96228.47;5171021;57;20142;-73
2021/07/28 23:49:36;;;;;;;2.65;1.85;;;;;;;17.01;93.66;96227.69;5179965;57;20142;-73
2021/07/28 23:54:38;;;;;;;1.67;1.58;;;;;;;16.97;92.82;96222.38;5180443;57;20146;-74
2021/07/28 23:59:40;;;;;;;5.57;1.48;;;;;;;16.86;91.43;96216.03;5179549;57;20115;-76
